sensor_id;sensor_type;location;lat;lon;timestamp;pressure;altitude;pressure_sealevel;temperature;humidity
596;BME280;19946;49.306;11.350;2024-02-21T01:51:41;97139.59;;;4.69;100.00
596;BME280;19946;49.306;11.350;2024-02-21T01:54:43;97081.03;;;4.27;100.00
596;BME280;19946;49.306;11.350;2024-02-21T01:57:44;97091.66;;;4.37;100.00
596;BME280;19946;49.306;11.350;2024-02-21T02:01:14;97116.91;;;4.62;100.00
596;BME280;19946;49.306;11.350;2024-02-21T03:40:07;96977.31;;;4.33;100.00
596;BME280;19946;49.306;11.350;2024-02-21T03:43:08;96950.41;;;4.09;100.00
596;BME280;19946;49.306;11.350;2024-02-21T03:46:39;97042.47;;;4.79;100.00
596;BME280;19946;49.306;11.350;2024-02-21T03:49:40;97032.25;;;4.62;100.00
596;BME280;19946;49.306;11.350;2024-02-21T04:22:43;96976.25;;;4.21;100.00
596;BME280;19946;49.306;11.350;2024-02-21T10:35:51;96768.81;;;10.13;100.00
596;BME280;19946;49.306;11.350;2024-02-21T10:38:52;96771.72;;;9.64;100.00
596;BME280;19946;49.306;11.350;2024-02-21T10:55:04;96678.03;;;10.05;100.00
596;BME280;19946;49.306;11.350;2024-02-21T10:58:10;96718.25;;;9.98;100.00
596;BME280;19946;49.306;11.350;2024-02-21T11:50:12;96543.31;;;10.18;85.07
596;BME280;19946;49.306;11.350;2024-02-21T11:53:12;96618.50;;;10.90;88.96
596;BME280;19946;49.306;11.350;2024-02-21T11:56:14;96577.50;;;10.33;74.46
596;BME280;19946;49.306;11.350;2024-02-21T11:59:14;96568.78;;;10.34;76.49
596;BME280;19946;49.306;11.350;2024-02-21T12:02:15;96554.56;;;9.96;74.33
596;BME280;19946;49.306;11.350;2024-02-21T12:16:15;96586.31;;;10.30;81.94
596;BME280;19946;49.306;11.350;2024-02-21T12:23:20;96548.06;;;10.75;68.46
596;BME280;19946;49.306;11.350;2024-02-21T12:26:21;96509.63;;;10.29;67.79
596;BME280;19946;49.306;11.350;2024-02-21T13:10:17;96463.25;;;10.68;64.56
596;BME280;19946;49.306;11.350;2024-02-21T13:13:18;96442.69;;;10.45;64.72
596;BME280;19946;49.306;11.350;2024-02-21T13:16:19;96461.22;;;11.11;64.58
596;BME280;19946;49.306;11.350;2024-02-21T13:19:19;96434.84;;;10.56;65.09
596;BME280;19946;49.306;11.350;2024-02-21T13:22:19;96460.56;;;10.79;62.33
596;BME280;19946;49.306;11.350;2024-02-21T13:25:22;96461.88;;;10.73;65.79
596;BME280;19946;49.306;11.350;2024-02-21T13:28:22;96432.09;;;10.48;60.49
596;BME280;19946;49.306;11.350;2024-02-21T13:31:23;96407.56;;;10.52;62.78
596;BME280;19946;49.306;11.350;2024-02-21T13:34:24;96423.31;;;10.40;61.07
596;BME280;19946;49.306;11.350;2024-02-21T13:37:26;96434.28;;;10.53;60.65
596;BME280;19946;49.306;11.350;2024-02-21T13:40:27;96401.38;;;10.34;59.71
596;BME280;19946;49.306;11.350;2024-02-21T13:43:27;96428.78;;;10.77;61.97
596;BME280;19946;49.306;11.350;2024-02-21T13:46:28;96408.75;;;10.79;63.99
596;BME280;19946;49.306;11.350;2024-02-21T13:49:28;96406.47;;;10.45;61.22
596;BME280;19946;49.306;11.350;2024-02-21T13:52:29;96396.13;;;10.55;59.59
596;BME280;19946;49.306;11.350;2024-02-21T13:55:29;96398.84;;;10.53;59.72
596;BME280;19946;49.306;11.350;2024-02-21T13:58:29;96388.59;;;10.42;57.00
596;BME280;19946;49.306;11.350;2024-02-21T14:01:29;96388.75;;;10.50;57.95
596;BME280;19946;49.306;11.350;2024-02-21T14:04:31;96388.00;;;10.59;58.38
596;BME280;19946;49.306;11.350;2024-02-21T14:07:32;96351.25;;;10.14;57.86
596;BME280;19946;49.306;11.350;2024-02-21T14:10:36;96365.44;;;10.50;57.23
596;BME280;19946;49.306;11.350;2024-02-21T14:13:37;96387.31;;;10.67;59.63
596;BME280;19946;49.306;11.350;2024-02-21T14:16:37;96373.84;;;10.73;56.54
596;BME280;19946;49.306;11.350;2024-02-21T14:19:38;96379.09;;;10.52;54.69
596;BME280;19946;49.306;11.350;2024-02-21T14:22:38;96360.78;;;10.35;55.40
596;BME280;19946;49.306;11.350;2024-02-21T14:25:39;96376.03;;;10.68;57.18
596;BME280;19946;49.306;11.350;2024-02-21T14:28:39;96377.16;;;11.04;56.80
596;BME280;19946;49.306;11.350;2024-02-21T14:31:40;96370.63;;;11.10;56.22
596;BME280;19946;49.306;11.350;2024-02-21T14:34:40;96344.34;;;10.55;57.21
596;BME280;19946;49.306;11.350;2024-02-21T14:37:41;96361.41;;;10.57;59.23
596;BME280;19946;49.306;11.350;2024-02-21T14:40:41;96345.75;;;10.59;58.45
596;BME280;19946;49.306;11.350;2024-02-21T14:43:43;96376.94;;;10.57;56.07
596;BME280;19946;49.306;11.350;2024-02-21T14:46:43;96347.34;;;10.60;58.29
596;BME280;19946;49.306;11.350;2024-02-21T14:49:44;96355.00;;;10.61;58.14
596;BME280;19946;49.306;11.350;2024-02-21T14:52:44;96302.88;;;10.36;56.69
596;BME280;19946;49.306;11.350;2024-02-21T14:55:44;96334.84;;;10.65;60.34
596;BME280;19946;49.306;11.350;2024-02-21T14:58:45;96344.34;;;10.55;58.96
596;BME280;19946;49.306;11.350;2024-02-21T15:01:47;96275.47;;;9.93;58.91
596;BME280;19946;49.306;11.350;2024-02-21T15:04:47;96310.91;;;10.33;61.22
596;BME280;19946;49.306;11.350;2024-02-21T15:07:47;96317.19;;;10.40;62.07
596;BME280;19946;49.306;11.350;2024-02-21T15:10:48;96324.53;;;10.35;62.32
596;BME280;19946;49.306;11.350;2024-02-21T15:13:50;96277.41;;;10.01;61.53
596;BME280;19946;49.306;11.350;2024-02-21T15:16:50;96288.56;;;10.01;63.57
596;BME280;19946;49.306;11.350;2024-02-21T15:19:51;96301.91;;;10.06;66.95
596;BME280;19946;49.306;11.350;2024-02-21T15:22:54;96317.88;;;10.11;76.57
596;BME280;19946;49.306;11.350;2024-02-21T15:25:55;96264.91;;;9.75;81.62
596;BME280;19946;49.306;11.350;2024-02-21T15:28:55;96282.94;;;9.66;94.29
596;BME280;19946;49.306;11.350;2024-02-21T15:31:56;96270.38;;;9.51;100.00
596;BME280;19946;49.306;11.350;2024-02-21T15:34:56;96260.47;;;9.57;100.00
596;BME280;19946;49.306;11.350;2024-02-21T15:37:57;96282.91;;;9.56;100.00
596;BME280;19946;49.306;11.350;2024-02-21T15:40:57;96251.94;;;9.45;100.00
596;BME280;19946;49.306;11.350;2024-02-21T15:43:58;96304.44;;;9.66;100.00
596;BME280;19946;49.306;11.350;2024-02-21T15:46:59;96294.31;;;9.33;100.00
596;BME280;19946;49.306;11.350;2024-02-21T15:49:59;96240.44;;;9.07;100.00
596;BME280;19946;49.306;11.350;2024-02-21T15:53:01;96240.13;;;9.22;100.00
596;BME280;19946;49.306;11.350;2024-02-21T15:56:02;96272.88;;;9.21;100.00
596;BME280;19946;49.306;11.350;2024-02-21T15:59:03;96277.66;;;9.05;100.00
596;BME280;19946;49.306;11.350;2024-02-21T16:02:05;96261.59;;;9.01;100.00
596;BME280;19946;49.306;11.350;2024-02-21T16:05:07;96232.34;;;8.80;100.00
596;BME280;19946;49.306;11.350;2024-02-21T16:08:09;96259.84;;;9.02;100.00
596;BME280;19946;49.306;11.350;2024-02-21T16:11:16;96257.06;;;8.94;100.00
596;BME280;19946;49.306;11.350;2024-02-21T16:14:17;96259.22;;;8.77;100.00
596;BME280;19946;49.306;11.350;2024-02-21T16:17:17;96257.84;;;8.73;100.00
596;BME280;19946;49.306;11.350;2024-02-21T16:20:17;96255.38;;;8.72;100.00
596;BME280;19946;49.306;11.350;2024-02-21T16:23:18;96242.69;;;8.80;100.00
596;BME280;19946;49.306;11.350;2024-02-21T16:26:18;96220.91;;;8.41;100.00
596;BME280;19946;49.306;11.350;2024-02-21T16:29:18;96257.44;;;8.57;100.00
596;BME280;19946;49.306;11.350;2024-02-21T16:32:19;96241.22;;;8.55;100.00
596;BME280;19946;49.306;11.350;2024-02-21T16:35:19;96239.84;;;8.51;100.00
596;BME280;19946;49.306;11.350;2024-02-21T16:38:20;96244.09;;;8.52;100.00
596;BME280;19946;49.306;11.350;2024-02-21T16:41:21;96210.91;;;8.25;100.00
596;BME280;19946;49.306;11.350;2024-02-21T16:44:21;96224.41;;;8.40;100.00
596;BME280;19946;49.306;11.350;2024-02-21T16:47:22;96189.16;;;8.07;100.00
596;BME280;19946;49.306;11.350;2024-02-21T16:50:24;96223.59;;;8.28;100.00
596;BME280;19946;49.306;11.350;2024-02-21T16:53:25;96182.88;;;8.00;100.00
596;BME280;19946;49.306;11.350;2024-02-21T16:56:25;96176.31;;;7.96;100.00
596;BME280;19946;49.306;11.350;2024-02-21T16:59:25;96199.72;;;8.04;100.00
596;BME280;19946;49.306;11.350;2024-02-21T17:02:26;96184.13;;;8.05;100.00
596;BME280;19946;49.306;11.350;2024-02-21T17:05:26;96173.94;;;7.93;100.00
596;BME280;19946;49.306;11.350;2024-02-21T17:08:27;96186.13;;;8.02;100.00
596;BME280;19946;49.306;11.350;2024-02-21T17:11:28;96176.66;;;7.91;100.00
596;BME280;19946;49.306;11.350;2024-02-21T17:14:28;96159.94;;;7.75;100.00
596;BME280;19946;49.306;11.350;2024-02-21T17:17:29;96137.81;;;7.61;100.00
596;BME280;19946;49.306;11.350;2024-02-21T17:20:29;96182.91;;;7.78;100.00
596;BME280;19946;49.306;11.350;2024-02-21T17:23:30;96161.72;;;7.52;100.00
596;BME280;19946;49.306;11.350;2024-02-21T17:26:31;96132.91;;;7.36;100.00
596;BME280;19946;49.306;11.350;2024-02-21T17:29:31;96172.00;;;7.52;100.00
596;BME280;19946;49.306;11.350;2024-02-21T17:32:32;96145.56;;;7.39;100.00
596;BME280;19946;49.306;11.350;2024-02-21T17:35:34;96117.81;;;7.20;100.00
596;BME280;19946;49.306;11.350;2024-02-21T17:38:35;96142.03;;;7.28;100.00
596;BME280;19946;49.306;11.350;2024-02-21T17:41:35;96144.84;;;7.25;100.00
596;BME280;19946;49.306;11.350;2024-02-21T17:44:36;96121.56;;;7.27;100.00
596;BME280;19946;49.306;11.350;2024-02-21T17:47:38;96095.91;;;7.25;100.00
596;BME280;19946;49.306;11.350;2024-02-21T17:50:39;96093.91;;;7.40;100.00
596;BME280;19946;49.306;11.350;2024-02-21T17:53:39;96102.13;;;7.45;100.00
596;BME280;19946;49.306;11.350;2024-02-21T17:56:40;96104.22;;;7.51;100.00
596;BME280;19946;49.306;11.350;2024-02-21T17:59:41;96110.88;;;7.65;100.00
596;BME280;19946;49.306;11.350;2024-02-21T18:02:43;96090.72;;;7.59;100.00
596;BME280;19946;49.306;11.350;2024-02-21T18:05:43;96075.84;;;7.62;100.00
596;BME280;19946;49.306;11.350;2024-02-21T18:08:44;96093.38;;;7.68;100.00
596;BME280;19946;49.306;11.350;2024-02-21T18:11:45;96092.13;;;7.63;100.00
596;BME280;19946;49.306;11.350;2024-02-21T18:14:45;96063.34;;;7.36;100.00
596;BME280;19946;49.306;11.350;2024-02-21T18:17:46;96104.31;;;7.50;100.00
